Time;durP1;ratioP1;P1;durP2;ratioP2;P2;SDS_P1;SDS_P2;PMS_P1;PMS_P2;Temp;Humidity;BMP_temperature;BMP_pressure;BME280_temperature;BME280_humidity;BME280_pressure;Samples;Min_cycle;Max_cycle;Signal;HPM_P1;HPM_P2
2023/04/11 00:01:39;;;;;;;6.03;4.10;;;10.90;99.90;;;;;;4922458;29;20580;-59
2023/04/11 00:04:09;;;;;;;4.30;3.90;;;10.90;99.90;;;;;;4923725;29;20239;-61
2023/04/11 00:06:39;;;;;;;5.50;4.03;;;10.80;99.90;;;;;;4922799;29;20242;-60
2023/04/11 00:09:07;;;;;;;4.10;3.70;;;10.80;99.90;;;;;;4921236;29;20243;-60
2023/04/11 00:11:35;;;;;;;5.03;3.33;;;10.70;99.90;;;;;;4922133;29;20230;-61
2023/04/11 00:14:04;;;;;;;4.23;3.30;;;10.70;99.90;;;;;;4921907;29;20239;-60
2023/04/11 00:16:33;;;;;;;4.23;3.53;;;10.80;99.90;;;;;;4922272;29;20240;-60
2023/04/11 00:19:01;;;;;;;5.67;3.53;;;10.80;99.90;;;;;;4922420;29;20263;-60
2023/04/11 00:21:29;;;;;;;5.77;3.43;;;10.70;99.90;;;;;;4922223;29;20240;-60
2023/04/11 00:23:59;;;;;;;4.83;3.27;;;10.70;99.90;;;;;;4922878;29;20230;-60
2023/04/11 00:26:27;;;;;;;3.67;3.23;;;10.70;99.90;;;;;;4923325;29;20238;-60
2023/04/11 00:28:55;;;;;;;5.67;3.50;;;10.60;99.90;;;;;;4923873;29;20242;-60
2023/04/11 00:31:24;;;;;;;4.13;3.13;;;10.60;99.90;;;;;;4927910;29;20711;-61
2023/04/11 00:33:52;;;;;;;5.70;3.17;;;10.50;99.90;;;;;;4922682;29;20231;-61
2023/04/11 00:36:20;;;;;;;3.50;2.97;;;10.50;99.90;;;;;;4922228;29;20227;-61
2023/04/11 00:38:48;;;;;;;4.43;3.00;;;10.60;99.90;;;;;;4920982;29;20228;-61
2023/04/11 00:41:17;;;;;;;2.87;2.57;;;10.50;99.90;;;;;;4922790;29;20939;-61
2023/04/11 00:43:46;;;;;;;4.97;2.80;;;10.50;99.90;;;;;;4922018;29;21375;-61
2023/04/11 00:46:15;;;;;;;4.60;3.03;;;10.40;99.90;;;;;;4922678;29;20274;-61
2023/04/11 00:48:44;;;;;;;3.80;3.10;;;10.50;99.90;;;;;;4935631;29;20239;-61
2023/04/11 00:51:13;;;;;;;2.90;2.60;;;10.50;99.90;;;;;;4938316;29;20234;-61
2023/04/11 00:53:44;;;;;;;3.90;3.00;;;10.50;99.90;;;;;;4924230;29;20258;-61
2023/04/11 00:56:12;;;;;;;3.87;2.77;;;10.40;99.90;;;;;;4923926;29;20242;-60
2023/04/11 00:58:42;;;;;;;4.17;3.37;;;10.40;99.90;;;;;;4923481;29;20251;-61
2023/04/11 01:01:10;;;;;;;3.30;2.83;;;10.40;99.90;;;;;;4915341;29;20239;-61
2023/04/11 01:03:40;;;;;;;4.50;3.30;;;10.40;99.90;;;;;;4922846;29;20295;-61
2023/04/11 01:06:10;;;;;;;4.17;3.30;;;10.40;99.90;;;;;;4923210;29;20226;-61
2023/04/11 01:08:40;;;;;;;4.43;3.20;;;10.40;99.90;;;;;;4922476;29;20231;-60
2023/04/11 01:11:09;;;;;;;4.43;3.37;;;10.30;99.90;;;;;;4924329;29;20287;-61
2023/04/11 01:13:40;;;;;;;3.70;3.10;;;10.30;99.90;;;;;;4939418;29;20235;-61
2023/04/11 01:16:10;;;;;;;4.67;3.00;;;10.30;99.90;;;;;;4924430;29;20249;-61
2023/04/11 01:18:38;;;;;;;4.10;3.10;;;10.30;99.90;;;;;;4924393;29;20289;-61
2023/04/11 01:21:09;;;;;;;5.17;3.23;;;10.30;99.90;;;;;;4923097;29;20301;-61
2023/04/11 01:23:39;;;;;;;4.97;3.10;;;10.20;99.90;;;;;;4923675;29;20722;-61
2023/04/11 01:26:08;;;;;;;3.23;2.67;;;10.30;99.90;;;;;;4924757;29;20279;-60
2023/04/11 01:28:36;;;;;;;4.50;3.17;;;10.30;99.90;;;;;;4923266;29;20618;-61
2023/04/11 01:31:05;;;;;;;5.07;2.73;;;10.20;99.90;;;;;;4935360;29;20307;-61
2023/04/11 01:33:34;;;;;;;3.03;2.53;;;10.10;99.90;;;;;;4919983;29;20231;-61
2023/04/11 01:36:02;;;;;;;4.70;2.70;;;10.00;99.90;;;;;;4921910;29;20701;-61
2023/04/11 01:38:30;;;;;;;2.90;2.60;;;10.00;99.90;;;;;;4921004;29;20595;-61
2023/04/11 01:41:00;;;;;;;3.20;2.33;;;10.00;99.90;;;;;;4921375;29;20253;-61
2023/04/11 01:43:28;;;;;;;2.63;2.20;;;10.00;99.90;;;;;;4921909;29;20236;-61
2023/04/11 01:45:56;;;;;;;3.60;2.40;;;10.00;99.90;;;;;;4922642;29;20223;-60
2023/04/11 01:48:24;;;;;;;3.40;2.40;;;9.90;99.90;;;;;;4936830;29;20227;-61
2023/04/11 01:50:54;;;;;;;2.40;2.20;;;9.90;99.90;;;;;;4922294;29;20234;-61
2023/04/11 01:53:22;;;;;;;3.23;2.40;;;9.90;99.90;;;;;;4922327;29;20227;-61
2023/04/11 01:55:51;;;;;;;4.47;2.73;;;9.90;99.90;;;;;;4920571;29;20285;-61
2023/04/11 01:58:20;;;;;;;3.57;2.70;;;9.90;99.90;;;;;;4919571;29;20639;-61
2023/04/11 02:00:48;;;;;;;3.23;2.70;;;9.90;99.90;;;;;;4919867;29;20286;-61
2023/04/11 02:03:21;;;;;;;4.60;2.77;;;9.90;99.90;;;;;;4920522;29;20250;-60
2023/04/11 02:05:49;;;;;;;3.20;2.60;;;10.00;99.90;;;;;;4921657;29;20233;-61
2023/04/11 02:08:17;;;;;;;5.20;3.00;;;9.90;99.90;;;;;;4920716;29;20242;-61
2023/04/11 02:10:45;;;;;;;6.10;3.20;;;10.00;99.90;;;;;;4922369;29;20695;-61
2023/04/11 02:13:13;;;;;;;3.83;2.80;;;9.90;99.90;;;;;;4936972;29;20342;-61
2023/04/11 02:15:43;;;;;;;5.03;3.17;;;9.90;99.90;;;;;;4921637;29;20233;-61
2023/04/11 02:18:11;;;;;;;5.37;3.53;;;9.90;99.90;;;;;;4921711;29;20225;-61
2023/04/11 02:20:39;;;;;;;5.63;3.63;;;10.00;99.90;;;;;;4922422;29;20234;-61
2023/04/11 02:23:07;;;;;;;3.77;3.47;;;9.90;99.90;;;;;;4937542;29;20308;-61
2023/04/11 02:25:35;;;;;;;4.10;3.70;;;9.90;99.90;;;;;;4924686;29;20223;-61
2023/04/11 02:28:04;;;;;;;5.97;3.50;;;10.00;99.90;;;;;;4924903;29;20229;-61
2023/04/11 02:30:35;;;;;;;3.70;2.53;;;10.00;99.90;;;;;;4925894;29;20245;-61
2023/04/11 02:33:04;;;;;;;3.63;2.10;;;9.90;99.90;;;;;;4917342;29;20333;-62
2023/04/11 02:35:33;;;;;;;2.00;1.00;;;9.80;99.90;;;;;;4921997;29;20237;-61
2023/04/11 02:38:01;;;;;;;1.77;1.10;;;9.70;99.90;;;;;;4923011;29;20261;-61
2023/04/11 02:40:30;;;;;;;2.13;1.00;;;9.60;99.90;;;;;;4925794;29;20606;-61
2023/04/11 02:43:00;;;;;;;2.37;0.73;;;9.50;99.90;;;;;;4924485;29;20226;-61
2023/04/11 02:45:28;;;;;;;1.57;0.83;;;9.40;99.90;;;;;;4923671;29;20238;-61
2023/04/11 02:47:57;;;;;;;2.10;0.80;;;9.50;99.90;;;;;;4921575;29;20230;-61
2023/04/11 02:50:26;;;;;;;2.10;0.80;;;9.50;99.90;;;;;;4919743;29;20231;-59
2023/04/11 02:52:55;;;;;;;1.57;0.80;;;9.50;99.90;;;;;;4919375;29;20267;-60
2023/04/11 02:55:27;;;;;;;0.90;0.77;;;9.50;99.90;;;;;;4920722;29;20229;-61
2023/04/11 02:57:55;;;;;;;1.00;0.80;;;9.50;99.90;;;;;;4921373;29;20351;-61
2023/04/11 03:00:23;;;;;;;1.03;0.80;;;9.50;99.90;;;;;;4919984;29;20714;-61
2023/04/11 03:02:58;;;;;;;1.07;0.70;;;9.50;99.90;;;;;;4919532;29;20296;-61
2023/04/11 03:05:30;;;;;;;2.57;0.90;;;9.40;99.90;;;;;;4936787;29;20707;-61
2023/04/11 03:07:58;;;;;;;1.03;0.80;;;9.30;99.90;;;;;;4921742;29;20682;-61
2023/04/11 03:10:28;;;;;;;2.03;1.00;;;9.30;99.90;;;;;;4921519;29;20647;-61
2023/04/11 03:12:57;;;;;;;2.00;1.07;;;9.30;99.90;;;;;;4940062;29;20232;-61
2023/04/11 03:15:26;;;;;;;1.20;0.90;;;9.20;99.90;;;;;;4938649;29;20235;-59
2023/04/11 03:17:55;;;;;;;1.90;0.90;;;9.10;99.90;;;;;;4923503;29;20261;-61
2023/04/11 03:20:23;;;;;;;0.97;0.83;;;9.00;99.90;;;;;;4925018;29;20281;-61
2023/04/11 03:22:54;;;;;;;2.03;0.90;;;9.00;99.90;;;;;;4940029;29;20238;-61
2023/04/11 03:25:23;;;;;;;1.60;0.80;;;9.00;99.90;;;;;;4923452;29;20234;-61
2023/04/11 03:27:52;;;;;;;1.73;1.10;;;9.00;99.90;;;;;;4923366;29;20238;-61
2023/04/11 03:30:21;;;;;;;3.07;1.00;;;8.90;99.90;;;;;;4944228;29;20312;-61
2023/04/11 03:32:49;;;;;;;2.27;0.80;;;8.90;99.90;;;;;;4923278;29;20238;-61
2023/04/11 03:35:19;;;;;;;1.57;1.00;;;8.90;99.90;;;;;;4922141;29;20261;-61
2023/04/11 03:37:49;;;;;;;1.27;1.00;;;8.80;99.90;;;;;;4929947;29;20596;-61
2023/04/11 03:40:19;;;;;;;3.77;0.90;;;8.90;99.90;;;;;;4923635;29;20238;-61
2023/04/11 03:42:52;;;;;;;2.37;0.83;;;8.80;99.90;;;;;;4925669;29;20225;-61
2023/04/11 03:45:25;;;;;;;2.57;1.10;;;8.80;99.90;;;;;;4925609;29;20258;-61
2023/04/11 03:47:55;;;;;;;2.07;1.10;;;8.80;99.90;;;;;;4929315;29;20289;-59
2023/04/11 03:50:28;;;;;;;2.70;1.00;;;8.80;99.90;;;;;;4928683;29;20232;-61
2023/04/11 03:53:00;;;;;;;1.60;1.03;;;8.70;99.90;;;;;;4927207;29;20262;-61
2023/04/11 03:55:31;;;;;;;1.90;1.10;;;8.70;99.90;;;;;;4927277;29;20678;-61
2023/04/11 03:58:01;;;;;;;2.07;1.20;;;8.70;99.90;;;;;;4926119;29;20315;-62
2023/04/11 04:00:31;;;;;;;2.77;1.37;;;8.60;99.90;;;;;;4933773;29;20328;-61
2023/04/11 04:03:05;;;;;;;2.13;1.30;;;8.60;99.90;;;;;;4920818;29;20722;-61
2023/04/11 04:05:34;;;;;;;2.13;1.30;;;8.60;99.90;;;;;;4920391;29;20260;-62
2023/04/11 04:08:03;;;;;;;2.50;1.40;;;8.50;99.90;;;;;;4921097;29;20237;-61
2023/04/11 04:10:53;;;;;;;2.13;1.37;;;8.50;99.90;;;;;;4930470;29;20262;-61
2023/04/11 04:13:21;;;;;;;2.67;1.50;;;8.40;99.90;;;;;;4926594;29;20320;-62
2023/04/11 04:16:00;;;;;;;2.83;1.30;;;8.40;99.90;;;;;;4928444;29;20276;-61
2023/04/11 04:18:30;;;;;;;1.87;1.33;;;8.40;99.90;;;;;;4929809;29;20727;-62
2023/04/11 04:21:00;;;;;;;4.53;1.40;;;8.40;99.90;;;;;;4922163;29;20234;-61
2023/04/11 04:23:31;;;;;;;3.07;1.23;;;8.40;99.90;;;;;;4940566;29;20240;-62
2023/04/11 04:26:24;;;;;;;3.07;1.40;;;8.40;99.90;;;;;;4923932;29;20242;-62
2023/04/11 04:29:04;;;;;;;2.97;1.10;;;8.40;99.90;;;;;;4923480;29;20241;-62
2023/04/11 04:31:49;;;;;;;2.83;1.73;;;8.40;99.90;;;;;;4922508;29;20269;-61
2023/04/11 04:34:20;;;;;;;2.60;1.67;;;8.40;99.90;;;;;;4923583;29;20264;-62
2023/04/11 04:36:55;;;;;;;3.07;1.20;;;8.40;99.90;;;;;;4922010;29;20234;-62
2023/04/11 04:39:32;;;;;;;4.77;1.23;;;8.40;99.90;;;;;;4938540;29;20237;-61
2023/04/11 04:42:03;;;;;;;3.43;1.70;;;8.30;99.90;;;;;;4922905;29;20230;-62
2023/04/11 04:44:37;;;;;;;2.97;1.27;;;8.30;99.90;;;;;;4938879;29;20269;-62
2023/04/11 04:47:13;;;;;;;4.97;1.27;;;8.30;99.90;;;;;;4922892;29;20581;-61
2023/04/11 04:49:41;;;;;;;4.20;1.57;;;8.20;99.90;;;;;;4923857;29;20237;-61
2023/04/11 04:52:09;;;;;;;5.60;1.70;;;8.20;99.90;;;;;;4926640;29;20237;-61
2023/04/11 04:54:38;;;;;;;3.50;1.43;;;8.20;99.90;;;;;;4926600;29;20225;-61
2023/04/11 04:57:08;;;;;;;3.57;1.70;;;8.20;99.90;;;;;;4940924;29;20233;-62
2023/04/11 04:59:36;;;;;;;4.07;1.37;;;8.10;99.90;;;;;;4927991;29;20628;-62
2023/04/11 05:02:11;;;;;;;4.90;1.40;;;8.10;99.90;;;;;;4926842;29;20284;-62
2023/04/11 05:04:41;;;;;;;4.77;1.40;;;8.10;99.90;;;;;;4918599;29;20760;-61
2023/04/11 05:07:12;;;;;;;3.17;1.67;;;8.10;99.90;;;;;;4925098;29;20650;-62
2023/04/11 05:09:40;;;;;;;3.93;1.73;;;8.10;99.90;;;;;;4923303;29;20665;-61
2023/04/11 05:12:25;;;;;;;3.07;1.60;;;8.20;99.90;;;;;;4929777;29;20231;-61
2023/04/11 05:14:58;;;;;;;4.93;1.70;;;8.10;99.90;;;;;;4926602;29;20260;-61
2023/04/11 05:17:29;;;;;;;5.47;1.70;;;8.20;99.90;;;;;;4925648;29;20244;-62
2023/04/11 05:19:58;;;;;;;6.63;2.07;;;8.10;99.90;;;;;;4941940;29;20245;-62
2023/04/11 05:22:27;;;;;;;4.20;1.73;;;8.10;99.90;;;;;;4920946;29;20229;-62
2023/04/11 05:24:56;;;;;;;5.40;1.70;;;8.20;99.90;;;;;;4919438;29;20655;-62
2023/04/11 05:27:26;;;;;;;4.40;1.57;;;8.20;99.90;;;;;;4917837;29;20225;-61
2023/04/11 05:29:54;;;;;;;4.30;1.60;;;8.20;99.90;;;;;;4918579;29;20225;-61
2023/04/11 05:32:23;;;;;;;4.63;1.57;;;8.20;99.90;;;;;;4919751;29;20242;-62
2023/04/11 05:34:52;;;;;;;5.40;2.17;;;8.20;99.90;;;;;;4918368;29;20229;-62
2023/04/11 05:37:32;;;;;;;5.40;1.60;;;8.20;99.90;;;;;;4919702;29;20716;-62
2023/04/11 05:40:00;;;;;;;5.97;1.60;;;8.20;99.90;;;;;;4920590;29;20241;-61
2023/04/11 05:42:29;;;;;;;5.20;1.73;;;8.20;99.90;;;;;;4921551;29;20240;-61
2023/04/11 05:44:59;;;;;;;5.13;1.93;;;8.20;99.90;;;;;;4936910;29;20229;-61
2023/04/11 05:47:28;;;;;;;5.13;1.70;;;8.30;99.90;;;;;;4920719;29;20229;-61
2023/04/11 05:49:56;;;;;;;4.10;1.40;;;8.30;99.90;;;;;;4920570;29;20280;-61
2023/04/11 05:52:24;;;;;;;5.60;2.00;;;8.30;99.90;;;;;;4922891;29;20280;-61
2023/04/11 05:54:52;;;;;;;7.17;1.50;;;8.30;99.90;;;;;;4920775;29;20235;-61
2023/04/11 05:57:20;;;;;;;4.53;1.77;;;8.30;99.90;;;;;;4920504;29;20233;-61
2023/04/11 05:59:51;;;;;;;5.90;1.63;;;8.30;99.90;;;;;;4919444;29;20589;-61
2023/04/11 06:02:20;;;;;;;4.30;1.73;;;8.40;99.90;;;;;;4917647;29;20245;-61
2023/04/11 06:04:48;;;;;;;5.07;1.60;;;8.40;99.90;;;;;;4919000;29;20233;-61
2023/04/11 06:07:16;;;;;;;6.07;1.60;;;8.40;99.90;;;;;;4919274;29;20233;-61
2023/04/11 06:09:44;;;;;;;5.20;1.40;;;8.40;99.90;;;;;;4919037;29;20238;-61
2023/04/11 06:12:12;;;;;;;4.40;1.90;;;8.50;99.90;;;;;;4919279;29;20229;-61
2023/04/11 06:14:40;;;;;;;4.80;1.60;;;8.50;99.90;;;;;;4919948;29;20226;-61
2023/04/11 06:17:10;;;;;;;7.43;1.63;;;8.50;99.90;;;;;;4919063;29;20689;-61
2023/04/11 06:19:38;;;;;;;4.50;1.50;;;8.50;99.90;;;;;;4919925;29;20228;-61
2023/04/11 06:22:06;;;;;;;3.97;1.50;;;8.60;99.90;;;;;;4922024;29;20236;-61
2023/04/11 06:24:35;;;;;;;2.83;1.20;;;8.50;99.90;;;;;;4919126;29;20232;-61
2023/04/11 06:27:04;;;;;;;3.17;0.97;;;8.40;99.90;;;;;;4920429;29;20704;-62
2023/04/11 06:29:32;;;;;;;2.17;0.70;;;8.30;99.90;;;;;;4919644;29;20587;-61
2023/04/11 06:32:00;;;;;;;1.47;0.80;;;8.20;99.90;;;;;;4920655;29;20244;-61
2023/04/11 06:34:30;;;;;;;1.63;0.97;;;8.20;99.90;;;;;;4919683;29;20280;-61
2023/04/11 06:36:58;;;;;;;3.23;0.80;;;8.20;99.90;;;;;;4919417;29;20241;-61
2023/04/11 06:39:26;;;;;;;2.90;0.90;;;8.10;99.90;;;;;;4920027;29;20693;-58
2023/04/11 06:41:55;;;;;;;2.07;0.80;;;8.10;99.90;;;;;;4919938;29;20271;-60
2023/04/11 06:44:26;;;;;;;1.27;0.70;;;8.10;99.90;;;;;;4918818;29;20228;-61
2023/04/11 06:46:54;;;;;;;0.87;0.40;;;8.00;99.90;;;;;;4907393;29;20704;-60
2023/04/11 06:49:23;;;;;;;0.97;0.43;;;8.00;99.90;;;;;;4911980;29;20241;-60
2023/04/11 06:51:53;;;;;;;1.20;0.60;;;8.00;99.90;;;;;;4912448;29;20247;-61
2023/04/11 06:54:22;;;;;;;0.87;0.47;;;8.00;99.90;;;;;;4912853;29;20239;-60
2023/04/11 06:56:50;;;;;;;4.13;0.60;;;8.00;99.90;;;;;;4909656;29;20301;-61
2023/04/11 06:59:19;;;;;;;1.87;0.60;;;8.00;99.90;;;;;;4911386;29;20248;-59
2023/04/11 07:01:48;;;;;;;1.60;0.60;;;8.00;99.90;;;;;;4910472;29;20620;-59
2023/04/11 07:04:16;;;;;;;2.33;0.60;;;8.00;99.90;;;;;;4910692;29;20268;-61
2023/04/11 07:06:45;;;;;;;0.70;0.60;;;8.00;99.90;;;;;;4909393;29;20233;-60
2023/04/11 07:09:15;;;;;;;1.17;0.60;;;8.00;99.90;;;;;;4910751;29;20221;-61
2023/04/11 07:11:43;;;;;;;1.47;0.70;;;7.90;99.90;;;;;;4912634;29;20233;-61
2023/04/11 07:14:11;;;;;;;1.00;0.80;;;8.00;99.90;;;;;;4912346;29;20235;-60
2023/04/11 07:16:40;;;;;;;3.60;0.77;;;8.00;99.90;;;;;;4909961;29;21176;-61
2023/04/11 07:19:08;;;;;;;0.87;0.60;;;8.00;99.90;;;;;;4911631;29;20235;-59
2023/04/11 07:21:37;;;;;;;1.47;0.80;;;8.10;99.90;;;;;;4912212;29;20300;-60
2023/04/11 07:24:05;;;;;;;0.83;0.70;;;8.00;99.90;;;;;;4912761;29;20233;-60
2023/04/11 07:26:37;;;;;;;1.70;0.70;;;8.00;99.90;;;;;;4909950;29;20233;-60
2023/04/11 07:29:05;;;;;;;0.83;0.63;;;8.00;99.90;;;;;;4914015;29;20286;-60
2023/04/11 07:31:37;;;;;;;1.40;0.83;;;8.00;99.90;;;;;;4913121;29;20244;-61
2023/04/11 07:34:05;;;;;;;2.00;0.77;;;8.00;99.90;;;;;;4914643;29;20229;-61
2023/04/11 07:36:34;;;;;;;1.07;0.70;;;8.00;99.90;;;;;;4910907;29;20309;-60
2023/04/11 07:39:07;;;;;;;2.17;0.90;;;8.10;99.90;;;;;;4913978;29;20243;-59
2023/04/11 07:41:37;;;;;;;1.50;1.20;;;8.10;99.90;;;;;;4913134;29;20235;-59
2023/04/11 07:44:06;;;;;;;2.60;1.33;;;8.20;99.90;;;;;;4913080;29;20269;-59
2023/04/11 07:46:34;;;;;;;2.37;1.50;;;8.20;99.90;;;;;;4911114;29;20240;-58
2023/04/11 07:49:02;;;;;;;5.27;1.97;;;8.20;99.90;;;;;;4914005;29;21094;-60
2023/04/11 07:51:31;;;;;;;3.60;2.10;;;8.20;99.90;;;;;;4913896;29;20241;-61
2023/04/11 07:54:00;;;;;;;2.20;1.40;;;8.30;99.90;;;;;;4913258;29;20234;-59
2023/04/11 07:56:28;;;;;;;4.03;1.47;;;8.20;99.90;;;;;;4910668;29;20737;-60
2023/04/11 07:58:57;;;;;;;2.20;1.20;;;8.30;99.90;;;;;;4911896;29;20249;-59
2023/04/11 08:01:26;;;;;;;1.57;1.20;;;8.20;99.90;;;;;;4911906;28;20929;-60
2023/04/11 08:03:55;;;;;;;2.40;1.43;;;8.20;99.90;;;;;;4912857;29;20258;-61
2023/04/11 08:06:27;;;;;;;4.23;1.97;;;8.20;99.90;;;;;;4907053;29;20268;-60
2023/04/11 08:08:57;;;;;;;5.40;2.40;;;8.30;99.90;;;;;;4910551;29;20228;-61
2023/04/11 08:11:25;;;;;;;4.63;2.60;;;8.30;99.90;;;;;;4908468;29;20245;-60
2023/04/11 08:13:53;;;;;;;6.13;2.43;;;8.30;99.90;;;;;;4908835;29;20241;-60
2023/04/11 08:16:23;;;;;;;6.67;2.90;;;8.30;99.90;;;;;;4907327;29;20245;-60
2023/04/11 08:18:51;;;;;;;5.30;2.83;;;8.40;99.90;;;;;;4910870;29;21120;-61
2023/04/11 08:21:19;;;;;;;5.80;3.10;;;8.50;99.90;;;;;;4910787;29;20252;-60
2023/04/11 08:23:47;;;;;;;5.77;2.80;;;8.50;99.90;;;;;;4910184;29;20709;-60
2023/04/11 08:26:18;;;;;;;5.67;2.97;;;8.60;99.90;;;;;;4905580;29;20309;-61
2023/04/11 08:28:46;;;;;;;5.37;2.77;;;8.50;99.90;;;;;;4909517;29;20902;-62
2023/04/11 08:31:15;;;;;;;3.77;3.20;;;8.50;99.90;;;;;;4903889;29;20620;-58
2023/04/11 08:33:44;;;;;;;5.13;3.03;;;8.50;99.90;;;;;;4903624;29;20242;-57
2023/04/11 08:36:13;;;;;;;8.17;3.40;;;8.60;99.90;;;;;;4900980;29;20242;-57
2023/04/11 08:38:41;;;;;;;6.47;3.00;;;8.70;99.90;;;;;;4903979;29;20654;-57
2023/04/11 08:41:09;;;;;;;6.10;3.70;;;8.70;99.90;;;;;;4903767;29;20266;-57
2023/04/11 08:43:39;;;;;;;6.70;3.30;;;8.70;99.90;;;;;;4904372;29;20237;-57
2023/04/11 08:46:08;;;;;;;5.37;3.50;;;8.70;99.90;;;;;;4901202;29;20233;-58
2023/04/11 08:48:36;;;;;;;7.30;3.10;;;8.70;99.90;;;;;;4903082;29;20241;-58
2023/04/11 08:51:06;;;;;;;7.50;3.60;;;8.70;99.90;;;;;;4904788;29;20685;-57
2023/04/11 08:53:36;;;;;;;7.53;3.43;;;8.70;99.90;;;;;;4904960;29;20701;-58
2023/04/11 08:56:05;;;;;;;7.20;3.30;;;8.70;99.90;;;;;;4901087;29;20248;-58
2023/04/11 08:58:33;;;;;;;5.90;2.97;;;8.70;99.90;;;;;;4904711;29;20690;-58
2023/04/11 09:01:24;;;;;;;6.30;2.87;;;8.70;99.90;;;;;;4904367;29;20238;-58
2023/04/11 09:03:53;;;;;;;4.47;2.77;;;8.70;99.90;;;;;;4904471;29;20281;-57
2023/04/11 09:06:23;;;;;;;6.10;2.77;;;8.70;99.90;;;;;;4900198;29;20273;-58
2023/04/11 09:08:51;;;;;;;5.70;2.53;;;8.80;99.90;;;;;;4903817;29;20244;-57
2023/04/11 09:11:19;;;;;;;4.80;2.60;;;8.90;99.90;;;;;;4907132;29;20693;-57
2023/04/11 09:13:47;;;;;;;3.27;2.20;;;9.00;99.90;;;;;;4905292;29;20577;-58
2023/04/11 09:16:16;;;;;;;4.43;2.00;;;9.20;99.90;;;;;;4918059;29;20236;-58
2023/04/11 09:18:45;;;;;;;2.40;1.53;;;9.20;99.90;;;;;;4906661;29;20274;-58
2023/04/11 09:21:15;;;;;;;5.00;1.93;;;9.30;99.90;;;;;;4906737;29;20280;-58
2023/04/11 09:23:44;;;;;;;2.10;1.37;;;9.20;99.90;;;;;;4906235;29;20710;-58
2023/04/11 09:26:13;;;;;;;2.00;1.40;;;9.20;99.90;;;;;;4903262;29;20692;-58
2023/04/11 09:28:43;;;;;;;3.87;1.60;;;9.30;99.90;;;;;;4905929;29;20734;-58
2023/04/11 09:31:11;;;;;;;3.53;1.60;;;9.40;99.90;;;;;;4906248;29;20725;-58
2023/04/11 09:33:52;;;;;;;1.77;1.43;;;9.40;99.90;;;;;;4906289;29;20242;-58
2023/04/11 09:36:22;;;;;;;3.17;1.30;;;9.40;99.90;;;;;;4900317;29;20235;-58
2023/04/11 09:38:51;;;;;;;3.77;1.20;;;9.30;99.90;;;;;;4903212;29;20770;-58
2023/04/11 09:41:30;;;;;;;2.67;1.20;;;9.30;99.90;;;;;;4903464;29;20246;-57
2023/04/11 09:43:59;;;;;;;1.20;1.10;;;9.30;99.90;;;;;;4904241;29;20242;-57
2023/04/11 09:46:28;;;;;;;3.10;1.10;;;9.20;99.90;;;;;;4898809;29;20250;-59
2023/04/11 09:48:56;;;;;;;3.10;1.07;;;9.10;99.90;;;;;;4903601;29;20241;-58
2023/04/11 09:51:25;;;;;;;1.87;1.00;;;9.10;99.90;;;;;;4904100;29;20260;-58
2023/04/11 09:53:57;;;;;;;1.53;0.90;;;9.10;99.90;;;;;;4904348;29;20733;-58
2023/04/11 09:56:26;;;;;;;1.67;0.80;;;9.00;99.90;;;;;;4899645;29;20654;-58
2023/04/11 09:58:56;;;;;;;1.47;0.70;;;9.00;99.90;;;;;;4903230;29;20241;-58
2023/04/11 10:01:25;;;;;;;1.30;0.60;;;9.00;99.90;;;;;;4903364;29;20245;-58
2023/04/11 10:03:55;;;;;;;0.67;0.50;;;9.00;99.90;;;;;;4903734;29;20812;-58
2023/04/11 10:06:32;;;;;;;1.20;0.67;;;8.90;99.90;;;;;;4899074;29;20332;-57
2023/04/11 10:09:10;;;;;;;1.23;0.33;;;9.00;99.90;;;;;;4902966;29;20232;-58
2023/04/11 10:11:42;;;;;;;1.57;0.60;;;8.90;99.90;;;;;;4902300;29;20230;-58
2023/04/11 10:14:37;;;;;;;0.67;0.50;;;9.00;99.90;;;;;;4902942;29;20268;-58
2023/04/11 10:17:13;;;;;;;2.50;0.50;;;9.00;99.90;;;;;;4898210;29;20229;-58
2023/04/11 10:19:44;;;;;;;1.20;0.50;;;8.90;99.90;;;;;;4902115;29;20732;-58
2023/04/11 10:22:57;;;;;;;1.80;0.40;;;8.90;99.90;;;;;;4902867;29;20815;-57
2023/04/11 10:25:28;;;;;;;0.77;0.60;;;8.90;99.90;;;;;;4899661;29;21116;-58
2023/04/11 10:27:59;;;;;;;1.60;0.70;;;8.90;99.90;;;;;;4901194;29;20238;-57
2023/04/11 10:31:05;;;;;;;1.83;0.70;;;9.00;99.90;;;;;;4902219;29;20238;-57
2023/04/11 10:33:34;;;;;;;3.10;0.70;;;9.10;99.90;;;;;;4901876;29;20712;-57
2023/04/11 10:36:05;;;;;;;2.73;0.70;;;9.20;99.90;;;;;;4893991;29;20235;-58
2023/04/11 10:38:49;;;;;;;1.70;0.60;;;9.40;99.90;;;;;;4903191;29;20245;-58
2023/04/11 10:41:30;;;;;;;2.37;0.60;;;9.50;99.90;;;;;;4903286;29;20241;-58
2023/04/11 10:44:17;;;;;;;1.20;0.40;;;9.50;99.90;;;;;;4906216;29;21070;-57
2023/04/11 10:46:47;;;;;;;1.63;0.57;;;9.50;99.90;;;;;;4898324;29;20263;-58
2023/04/11 10:49:35;;;;;;;2.23;0.70;;;9.50;99.90;;;;;;4904658;29;20609;-58
2023/04/11 10:52:23;;;;;;;1.53;0.70;;;9.50;99.90;;;;;;4903459;29;20589;-58
2023/04/11 10:54:53;;;;;;;2.03;0.80;;;9.50;99.90;;;;;;4901438;29;20230;-58
2023/04/11 10:57:22;;;;;;;1.17;0.73;;;9.60;99.90;;;;;;4901713;29;20639;-57
2023/04/11 10:59:58;;;;;;;2.43;0.60;;;9.40;99.90;;;;;;4905536;29;20612;-58
2023/04/11 11:02:38;;;;;;;2.20;0.70;;;9.50;99.90;;;;;;4902991;29;20606;-57
2023/04/11 11:05:21;;;;;;;3.87;0.90;;;9.50;99.90;;;;;;4900502;29;20764;-58
2023/04/11 11:07:50;;;;;;;5.63;1.37;;;9.60;99.90;;;;;;4900892;29;20241;-58
2023/04/11 11:10:41;;;;;;;2.10;1.00;;;9.60;99.90;;;;;;4903089;29;20238;-58
2023/04/11 11:13:11;;;;;;;2.77;1.00;;;9.50;99.90;;;;;;4903524;29;20231;-58
2023/04/11 11:15:46;;;;;;;4.60;1.27;;;9.60;99.90;;;;;;4901263;29;20230;-58
2023/04/11 11:18:15;;;;;;;2.47;1.20;;;9.60;99.90;;;;;;4905067;29;20239;-58
2023/04/11 11:20:44;;;;;;;5.00;1.37;;;9.60;99.90;;;;;;4905013;29;20250;-58
2023/04/11 11:23:12;;;;;;;2.63;1.67;;;9.60;99.90;;;;;;4904931;29;20238;-58
2023/04/11 11:25:40;;;;;;;3.00;1.40;;;9.80;99.90;;;;;;4900528;29;20246;-58
2023/04/11 11:28:10;;;;;;;2.10;1.20;;;9.90;99.90;;;;;;4904304;29;20229;-58
2023/04/11 11:30:50;;;;;;;5.27;1.87;;;9.90;99.90;;;;;;4904756;29;20242;-58
2023/04/11 11:33:25;;;;;;;4.60;1.57;;;9.80;99.90;;;;;;4906846;29;20238;-58
2023/04/11 11:35:55;;;;;;;4.00;1.30;;;9.80;99.90;;;;;;4900335;29;20327;-58
2023/04/11 11:38:26;;;;;;;3.50;1.30;;;9.90;99.90;;;;;;4906632;29;20653;-58
2023/04/11 11:40:55;;;;;;;3.83;1.40;;;10.00;99.90;;;;;;4906386;29;20247;-58
2023/04/11 11:43:26;;;;;;;2.83;1.30;;;10.10;99.90;;;;;;4906075;29;20733;-58
2023/04/11 11:46:12;;;;;;;5.77;1.50;;;10.20;99.90;;;;;;4901675;29;20306;-59
2023/04/11 11:48:43;;;;;;;3.77;1.70;;;10.10;99.90;;;;;;4905700;29;20284;-59
2023/04/11 11:51:11;;;;;;;5.23;1.70;;;10.30;99.90;;;;;;4905901;29;20870;-57
2023/04/11 11:53:39;;;;;;;5.33;1.87;;;10.40;99.90;;;;;;4906953;29;20234;-58
2023/04/11 11:56:15;;;;;;;3.77;1.73;;;10.60;99.90;;;;;;4904643;29;20851;-58
2023/04/11 11:58:45;;;;;;;3.07;1.50;;;10.40;99.90;;;;;;4907338;29;20329;-58
2023/04/11 12:01:15;;;;;;;1.93;1.10;;;10.20;99.90;;;;;;4905791;28;20333;-58
2023/04/11 12:03:44;;;;;;;4.53;1.40;;;10.10;99.90;;;;;;4907415;29;20311;-58
2023/04/11 12:06:14;;;;;;;4.03;1.37;;;10.00;99.90;;;;;;4904331;29;20233;-58
2023/04/11 12:08:48;;;;;;;4.13;1.50;;;9.90;99.90;;;;;;4907134;29;20232;-58
2023/04/11 12:11:17;;;;;;;4.47;1.20;;;9.60;99.90;;;;;;4908619;29;20760;-58
2023/04/11 12:13:52;;;;;;;4.17;1.60;;;9.40;99.90;;;;;;4908188;29;20639;-58
2023/04/11 12:16:22;;;;;;;5.60;1.87;;;9.30;99.90;;;;;;4904694;29;20732;-58
2023/04/11 12:18:50;;;;;;;4.90;1.83;;;9.30;99.90;;;;;;4908054;29;20241;-58
2023/04/11 12:21:18;;;;;;;5.90;1.83;;;9.30;99.90;;;;;;4907964;29;20787;-56
2023/04/11 12:23:46;;;;;;;4.30;1.73;;;9.40;99.90;;;;;;4907152;29;20628;-58
2023/04/11 12:26:15;;;;;;;3.70;1.77;;;9.40;99.90;;;;;;4901001;29;20238;-58
2023/04/11 12:28:43;;;;;;;3.27;1.70;;;9.30;99.90;;;;;;4904742;29;20229;-58
2023/04/11 12:31:13;;;;;;;6.87;2.20;;;9.30;99.90;;;;;;4904933;29;20230;-58
2023/04/11 12:33:41;;;;;;;4.47;1.80;;;9.30;99.90;;;;;;4904686;29;20256;-58
2023/04/11 12:36:10;;;;;;;6.67;2.20;;;9.30;99.90;;;;;;4901006;29;20914;-58
2023/04/11 12:38:38;;;;;;;4.70;1.70;;;9.40;99.90;;;;;;4904966;29;20609;-58
2023/04/11 12:41:06;;;;;;;7.40;1.77;;;9.40;99.90;;;;;;4906055;29;20238;-58
2023/04/11 12:43:54;;;;;;;5.10;2.00;;;9.40;99.90;;;;;;4906395;29;20314;-58
2023/04/11 12:46:25;;;;;;;4.87;1.90;;;9.30;99.90;;;;;;4903748;29;20750;-58
2023/04/11 12:48:53;;;;;;;7.93;2.30;;;9.20;99.90;;;;;;4907251;29;20268;-58
2023/04/11 12:51:21;;;;;;;5.03;1.90;;;9.30;99.90;;;;;;4907267;29;20256;-58
2023/04/11 12:53:51;;;;;;;6.53;1.83;;;9.30;99.90;;;;;;4906875;29;20245;-58
2023/04/11 12:56:19;;;;;;;5.33;2.03;;;9.30;99.90;;;;;;4903042;29;20726;-58
2023/04/11 12:58:47;;;;;;;6.47;1.93;;;9.50;99.90;;;;;;4906111;29;20238;-58
2023/04/11 13:01:16;;;;;;;8.33;2.23;;;9.60;99.90;;;;;;4906283;29;20324;-59
2023/04/11 13:03:45;;;;;;;6.70;2.70;;;9.70;99.90;;;;;;4902908;29;20262;-59
2023/04/11 13:06:15;;;;;;;8.13;2.40;;;9.70;99.90;;;;;;4899188;29;20340;-58
2023/04/11 13:08:43;;;;;;;8.63;3.13;;;9.70;99.90;;;;;;4903739;29;20969;-58
2023/04/11 13:11:11;;;;;;;8.47;3.47;;;9.70;99.90;;;;;;4904613;29;20329;-58
2023/04/11 13:13:39;;;;;;;8.07;2.67;;;9.50;99.90;;;;;;4904711;29;20243;-58